sensor_id;sensor_type;location;lat;lon;timestamp;pressure;altitude;pressure_sealevel;temperature;humidity
75913;BME280;64592;52.168;21.040;2022-12-18T00:00:57;101786.56;;;-5.35;84.57
75913;BME280;64592;52.168;21.040;2022-12-18T00:06:00;101780.44;;;-5.33;84.61
75913;BME280;64592;52.168;21.040;2022-12-18T00:11:03;101788.31;;;-5.33;84.59
75913;BME280;64592;52.168;21.040;2022-12-18T00:16:07;101795.31;;;-5.33;84.96
75913;BME280;64592;52.168;21.040;2022-12-18T00:21:11;101796.19;;;-5.36;84.83
75913;BME280;64592;52.168;21.040;2022-12-18T00:26:14;101809.34;;;-5.34;84.97
75913;BME280;64592;52.168;21.040;2022-12-18T00:31:18;101815.53;;;-5.29;85.53
75913;BME280;64592;52.168;21.040;2022-12-18T00:36:24;101817.28;;;-5.30;85.28
75913;BME280;64592;52.168;21.040;2022-12-18T00:41:26;101820.00;;;-5.22;85.02
75913;BME280;64592;52.168;21.040;2022-12-18T00:46:47;101820.84;;;-5.23;85.44
75913;BME280;64592;52.168;21.040;2022-12-18T00:51:50;101832.31;;;-5.17;86.03
75913;BME280;64592;52.168;21.040;2022-12-18T00:56:52;101829.72;;;-5.15;85.07
75913;BME280;64592;52.168;21.040;2022-12-18T01:01:55;101842.91;;;-5.12;86.02
75913;BME280;64592;52.168;21.040;2022-12-18T01:06:58;101850.84;;;-5.07;85.47
75913;BME280;64592;52.168;21.040;2022-12-18T01:12:00;101852.59;;;-5.06;85.13
75913;BME280;64592;52.168;21.040;2022-12-18T01:17:02;101856.13;;;-5.03;85.39
75913;BME280;64592;52.168;21.040;2022-12-18T01:22:05;101860.53;;;-5.02;85.19
75913;BME280;64592;52.168;21.040;2022-12-18T01:27:08;101866.66;;;-5.04;84.77
75913;BME280;64592;52.168;21.040;2022-12-18T01:32:09;101870.16;;;-5.02;84.52
75913;BME280;64592;52.168;21.040;2022-12-18T01:37:13;101885.09;;;-5.00;85.14
75913;BME280;64592;52.168;21.040;2022-12-18T01:42:15;101884.25;;;-4.96;84.43
75913;BME280;64592;52.168;21.040;2022-12-18T01:47:22;101886.94;;;-4.93;83.96
75913;BME280;64592;52.168;21.040;2022-12-18T01:52:28;101895.75;;;-4.91;83.97
75913;BME280;64592;52.168;21.040;2022-12-18T01:57:30;101899.22;;;-4.92;83.54
75913;BME280;64592;52.168;21.040;2022-12-18T02:02:32;101907.03;;;-4.96;83.24
75913;BME280;64592;52.168;21.040;2022-12-18T02:07:37;101916.69;;;-4.97;84.04
75913;BME280;64592;52.168;21.040;2022-12-18T02:12:48;101924.59;;;-4.94;83.14
75913;BME280;64592;52.168;21.040;2022-12-18T02:17:56;101934.25;;;-4.93;83.38
75913;BME280;64592;52.168;21.040;2022-12-18T02:23:07;101937.75;;;-4.94;82.88
75913;BME280;64592;52.168;21.040;2022-12-18T02:28:13;101949.16;;;-4.93;83.19
75913;BME280;64592;52.168;21.040;2022-12-18T02:33:19;101948.31;;;-4.91;83.88
75913;BME280;64592;52.168;21.040;2022-12-18T02:38:23;101958.84;;;-4.91;83.83
75913;BME280;64592;52.168;21.040;2022-12-18T02:43:29;101962.31;;;-4.92;83.33
75913;BME280;64592;52.168;21.040;2022-12-18T02:48:33;101972.91;;;-4.86;83.86
75913;BME280;64592;52.168;21.040;2022-12-18T02:53:39;101971.19;;;-4.84;83.17
75913;BME280;64592;52.168;21.040;2022-12-18T02:58:47;101978.22;;;-4.81;82.98
75913;BME280;64592;52.168;21.040;2022-12-18T03:03:56;101993.09;;;-4.85;83.44
75913;BME280;64592;52.168;21.040;2022-12-18T03:09:02;102003.56;;;-4.88;82.67
75913;BME280;64592;52.168;21.040;2022-12-18T03:14:07;102006.31;;;-4.82;82.54
75913;BME280;64592;52.168;21.040;2022-12-18T03:19:14;102014.09;;;-4.86;83.01
75913;BME280;64592;52.168;21.040;2022-12-18T03:24:18;102017.59;;;-4.87;83.20
75913;BME280;64592;52.168;21.040;2022-12-18T03:29:25;102029.84;;;-4.88;82.19
75913;BME280;64592;52.168;21.040;2022-12-18T03:34:31;102043.00;;;-4.88;82.23
75913;BME280;64592;52.168;21.040;2022-12-18T03:39:34;102042.06;;;-4.93;81.95
75913;BME280;64592;52.168;21.040;2022-12-18T03:44:41;102043.78;;;-4.95;82.21
75913;BME280;64592;52.168;21.040;2022-12-18T03:49:48;102045.50;;;-4.95;82.27
75913;BME280;64592;52.168;21.040;2022-12-18T03:54:55;102047.22;;;-4.99;81.84
75913;BME280;64592;52.168;21.040;2022-12-18T04:00:04;102058.69;;;-4.94;82.27
75913;BME280;64592;52.168;21.040;2022-12-18T04:05:07;102067.44;;;-4.95;82.22
75913;BME280;64592;52.168;21.040;2022-12-18T04:10:10;102069.19;;;-4.97;81.64
75913;BME280;64592;52.168;21.040;2022-12-18T04:15:15;102081.41;;;-4.99;82.40
75913;BME280;64592;52.168;21.040;2022-12-18T04:20:17;102092.81;;;-4.98;81.72
75913;BME280;64592;52.168;21.040;2022-12-18T04:25:18;102092.81;;;-4.98;82.66
75913;BME280;64592;52.168;21.040;2022-12-18T04:30:21;102101.59;;;-4.95;82.69
75913;BME280;64592;52.168;21.040;2022-12-18T04:35:23;102100.66;;;-5.00;81.53
75913;BME280;64592;52.168;21.040;2022-12-18T04:40:25;102112.00;;;-5.02;81.78
75913;BME280;64592;52.168;21.040;2022-12-18T04:45:28;102123.31;;;-5.08;81.88
75913;BME280;64592;52.168;21.040;2022-12-18T04:50:30;102125.88;;;-5.11;81.82
75913;BME280;64592;52.168;21.040;2022-12-18T04:55:32;102131.88;;;-5.18;82.03
75913;BME280;64592;52.168;21.040;2022-12-18T05:00:35;102141.50;;;-5.20;82.01
75913;BME280;64592;52.168;21.040;2022-12-18T05:05:36;102143.91;;;-5.32;82.75
75913;BME280;64592;52.168;21.040;2022-12-18T05:10:38;102150.78;;;-5.39;83.22
75913;BME280;64592;52.168;21.040;2022-12-18T05:15:41;102163.75;;;-5.48;83.78
75913;BME280;64592;52.168;21.040;2022-12-18T05:20:43;102172.50;;;-5.49;83.70
75913;BME280;64592;52.168;21.040;2022-12-18T05:25:47;102183.88;;;-5.50;83.89
75913;BME280;64592;52.168;21.040;2022-12-18T05:30:50;102190.91;;;-5.49;83.89
75913;BME280;64592;52.168;21.040;2022-12-18T05:35:52;102193.50;;;-5.51;83.35
75913;BME280;64592;52.168;21.040;2022-12-18T05:40:54;102203.88;;;-5.55;83.85
75913;BME280;64592;52.168;21.040;2022-12-18T05:45:57;102201.00;;;-5.69;85.34
75913;BME280;64592;52.168;21.040;2022-12-18T05:51:04;102200.09;;;-5.69;85.89
75913;BME280;64592;52.168;21.040;2022-12-18T05:56:08;102207.16;;;-5.67;87.01
75913;BME280;64592;52.168;21.040;2022-12-18T06:01:15;102212.34;;;-5.71;87.14
75913;BME280;64592;52.168;21.040;2022-12-18T06:06:19;102217.53;;;-5.73;87.76
75913;BME280;64592;52.168;21.040;2022-12-18T06:11:24;102238.47;;;-5.76;87.71
75913;BME280;64592;52.168;21.040;2022-12-18T06:16:28;102243.78;;;-5.74;87.49
75913;BME280;64592;52.168;21.040;2022-12-18T06:21:30;102250.63;;;-5.81;88.27
75913;BME280;64592;52.168;21.040;2022-12-18T06:26:32;102265.63;;;-5.75;88.11
75913;BME280;64592;52.168;21.040;2022-12-18T06:31:35;102281.50;;;-5.71;88.50
75913;BME280;64592;52.168;21.040;2022-12-18T06:36:37;102288.56;;;-5.67;88.03
75913;BME280;64592;52.168;21.040;2022-12-18T06:41:39;102287.75;;;-5.64;88.82
75913;BME280;64592;52.168;21.040;2022-12-18T06:46:42;102304.53;;;-5.58;88.45
75913;BME280;64592;52.168;21.040;2022-12-18T06:51:43;102309.06;;;-5.51;88.53
75913;BME280;64592;52.168;21.040;2022-12-18T06:56:45;102318.72;;;-5.50;87.19
75913;BME280;64592;52.168;21.040;2022-12-18T07:01:48;102334.50;;;-5.48;87.37
75913;BME280;64592;52.168;21.040;2022-12-18T07:06:50;102338.13;;;-5.43;87.89
75913;BME280;64592;52.168;21.040;2022-12-18T07:11:52;102330.28;;;-5.40;87.66
75913;BME280;64592;52.168;21.040;2022-12-18T07:16:55;102341.78;;;-5.36;87.51
75913;BME280;64592;52.168;21.040;2022-12-18T07:21:56;102357.59;;;-5.33;86.50
75913;BME280;64592;52.168;21.040;2022-12-18T07:26:58;102364.59;;;-5.34;86.59
75913;BME280;64592;52.168;21.040;2022-12-18T07:32:01;102362.06;;;-5.29;87.57
75913;BME280;64592;52.168;21.040;2022-12-18T07:37:03;102357.88;;;-5.21;86.97
75913;BME280;64592;52.168;21.040;2022-12-18T07:42:04;102368.41;;;-5.20;86.07
75913;BME280;64592;52.168;21.040;2022-12-18T07:47:25;102385.91;;;-5.20;86.96
75913;BME280;64592;52.168;21.040;2022-12-18T07:52:27;102386.81;;;-5.20;87.11
75913;BME280;64592;52.168;21.040;2022-12-18T07:57:28;102398.34;;;-5.13;86.71
75913;BME280;64592;52.168;21.040;2022-12-18T08:02:31;102408.00;;;-5.12;87.01
75913;BME280;64592;52.168;21.040;2022-12-18T08:07:33;102418.59;;;-5.07;87.21
75913;BME280;64592;52.168;21.040;2022-12-18T08:12:35;102423.19;;;-4.99;87.14
75913;BME280;64592;52.168;21.040;2022-12-18T08:17:38;102425.88;;;-4.94;86.32
75913;BME280;64592;52.168;21.040;2022-12-18T08:22:39;102440.97;;;-4.86;87.10
75913;BME280;64592;52.168;21.040;2022-12-18T08:27:41;102439.31;;;-4.81;86.58
75913;BME280;64592;52.168;21.040;2022-12-18T08:32:44;102453.47;;;-4.74;86.00
75913;BME280;64592;52.168;21.040;2022-12-18T08:37:45;102453.59;;;-4.70;84.59
75913;BME280;64592;52.168;21.040;2022-12-18T08:42:47;102467.69;;;-4.67;85.06
75913;BME280;64592;52.168;21.040;2022-12-18T08:48:07;102460.69;;;-4.65;84.08
75913;BME280;64592;52.168;21.040;2022-12-18T08:53:09;102465.94;;;-4.65;84.53
75913;BME280;64592;52.168;21.040;2022-12-18T08:58:11;102474.84;;;-4.60;84.50
75913;BME280;64592;52.168;21.040;2022-12-18T09:03:14;102481.88;;;-4.59;84.12
75913;BME280;64592;52.168;21.040;2022-12-18T09:08:16;102483.59;;;-4.61;84.36
75913;BME280;64592;52.168;21.040;2022-12-18T09:13:18;102480.03;;;-4.63;84.27
75913;BME280;64592;52.168;21.040;2022-12-18T09:18:23;102484.47;;;-4.61;84.30
75913;BME280;64592;52.168;21.040;2022-12-18T09:23:25;102495.03;;;-4.58;83.53
75913;BME280;64592;52.168;21.040;2022-12-18T09:28:26;102495.16;;;-4.52;83.73
75913;BME280;64592;52.168;21.040;2022-12-18T09:33:30;102505.84;;;-4.46;83.51
75913;BME280;64592;52.168;21.040;2022-12-18T09:38:31;102508.44;;;-4.47;83.65
75913;BME280;64592;52.168;21.040;2022-12-18T09:43:36;102511.91;;;-4.48;83.05
75913;BME280;64592;52.168;21.040;2022-12-18T09:48:44;102516.97;;;-4.57;82.23
75913;BME280;64592;52.168;21.040;2022-12-18T09:53:53;102510.00;;;-4.55;82.57
75913;BME280;64592;52.168;21.040;2022-12-18T09:58:58;102521.31;;;-4.61;83.62
75913;BME280;64592;52.168;21.040;2022-12-18T10:04:02;102508.19;;;-4.59;82.86
75913;BME280;64592;52.168;21.040;2022-12-18T10:09:09;102503.84;;;-4.56;83.30
75913;BME280;64592;52.168;21.040;2022-12-18T10:14:18;102521.63;;;-4.46;83.33
75913;BME280;64592;52.168;21.040;2022-12-18T10:19:35;102530.53;;;-4.39;83.47
75913;BME280;64592;52.168;21.040;2022-12-18T10:24:42;102522.69;;;-4.36;83.25
75913;BME280;64592;52.168;21.040;2022-12-18T10:29:46;102539.31;;;-4.39;83.30
75913;BME280;64592;52.168;21.040;2022-12-18T10:34:50;102526.13;;;-4.40;84.35
75913;BME280;64592;52.168;21.040;2022-12-18T10:40:08;102533.19;;;-4.38;84.15
75913;BME280;64592;52.168;21.040;2022-12-18T10:45:12;102530.56;;;-4.38;83.67
75913;BME280;64592;52.168;21.040;2022-12-18T10:50:26;102527.91;;;-4.39;83.51
75913;BME280;64592;52.168;21.040;2022-12-18T10:55:31;102518.38;;;-4.33;83.90
75913;BME280;64592;52.168;21.040;2022-12-18T11:00:33;102529.84;;;-4.29;82.64
75913;BME280;64592;52.168;21.040;2022-12-18T11:05:37;102535.09;;;-4.29;83.66
75913;BME280;64592;52.168;21.040;2022-12-18T11:10:39;102537.84;;;-4.24;82.91
75913;BME280;64592;52.168;21.040;2022-12-18T11:15:41;102530.03;;;-4.20;82.81
75913;BME280;64592;52.168;21.040;2022-12-18T11:20:50;102535.41;;;-4.15;82.19
75913;BME280;64592;52.168;21.040;2022-12-18T11:25:55;102540.63;;;-4.17;81.62
75913;BME280;64592;52.168;21.040;2022-12-18T11:31:19;102538.84;;;-4.18;81.81
75913;BME280;64592;52.168;21.040;2022-12-18T11:36:23;102554.66;;;-4.18;81.91
75913;BME280;64592;52.168;21.040;2022-12-18T11:41:28;102544.16;;;-4.15;81.99
75913;BME280;64592;52.168;21.040;2022-12-18T11:46:49;102543.31;;;-4.14;82.55
75913;BME280;64592;52.168;21.040;2022-12-18T11:52:00;102544.31;;;-4.07;82.63
75913;BME280;64592;52.168;21.040;2022-12-18T11:57:10;102552.38;;;-4.00;82.45
75913;BME280;64592;52.168;21.040;2022-12-18T12:02:34;102549.88;;;-3.94;81.89
75913;BME280;64592;52.168;21.040;2022-12-18T12:07:44;102556.97;;;-3.89;80.37
75913;BME280;64592;52.168;21.040;2022-12-18T12:12:58;102554.38;;;-3.88;80.32
75913;BME280;64592;52.168;21.040;2022-12-18T12:18:08;102550.03;;;-3.84;81.13
75913;BME280;64592;52.168;21.040;2022-12-18T12:23:22;102551.94;;;-3.76;80.67
75913;BME280;64592;52.168;21.040;2022-12-18T12:28:38;102555.66;;;-3.66;80.36
75913;BME280;64592;52.168;21.040;2022-12-18T12:33:49;102563.56;;;-3.66;80.14
75913;BME280;64592;52.168;21.040;2022-12-18T12:38:58;102571.50;;;-3.65;80.42
75913;BME280;64592;52.168;21.040;2022-12-18T12:44:04;102583.78;;;-3.65;79.98
75913;BME280;64592;52.168;21.040;2022-12-18T12:49:11;102589.91;;;-3.66;80.19
75913;BME280;64592;52.168;21.040;2022-12-18T12:54:20;102592.50;;;-3.68;80.46
75913;BME280;64592;52.168;21.040;2022-12-18T12:59:27;102594.34;;;-3.64;80.05
75913;BME280;64592;52.168;21.040;2022-12-18T13:04:36;102608.38;;;-3.65;80.49
75913;BME280;64592;52.168;21.040;2022-12-18T13:10:14;102623.19;;;-3.70;80.55
75913;BME280;64592;52.168;21.040;2022-12-18T13:15:28;102615.28;;;-3.70;81.16
75913;BME280;64592;52.168;21.040;2022-12-18T13:20:34;102623.16;;;-3.73;81.24
75913;BME280;64592;52.168;21.040;2022-12-18T13:25:38;102642.44;;;-3.74;81.65
75913;BME280;64592;52.168;21.040;2022-12-18T13:30:57;102640.63;;;-3.76;81.09
75913;BME280;64592;52.168;21.040;2022-12-18T13:36:02;102635.31;;;-3.78;81.32
75913;BME280;64592;52.168;21.040;2022-12-18T13:41:23;102638.81;;;-3.80;81.50
75913;BME280;64592;52.168;21.040;2022-12-18T13:46:27;102644.13;;;-3.79;81.75
75913;BME280;64592;52.168;21.040;2022-12-18T13:51:31;102645.84;;;-3.79;80.92
75913;BME280;64592;52.168;21.040;2022-12-18T13:56:43;102656.31;;;-3.82;81.85
75913;BME280;64592;52.168;21.040;2022-12-18T14:01:48;102658.03;;;-3.86;81.49
75913;BME280;64592;52.168;21.040;2022-12-18T14:06:53;102660.56;;;-3.89;81.81
75913;BME280;64592;52.168;21.040;2022-12-18T14:11:57;102663.19;;;-3.91;81.30
75913;BME280;64592;52.168;21.040;2022-12-18T14:17:13;102668.34;;;-3.95;81.66
75913;BME280;64592;52.168;21.040;2022-12-18T14:22:17;102670.97;;;-3.97;81.78
75913;BME280;64592;52.168;21.040;2022-12-18T14:27:24;102688.44;;;-4.00;82.03
75913;BME280;64592;52.168;21.040;2022-12-18T14:32:26;102675.16;;;-4.05;82.13
75913;BME280;64592;52.168;21.040;2022-12-18T14:37:27;102679.59;;;-4.04;81.50
75913;BME280;64592;52.168;21.040;2022-12-18T14:42:30;102680.38;;;-4.08;81.69
75913;BME280;64592;52.168;21.040;2022-12-18T14:47:32;102685.50;;;-4.14;82.03
75913;BME280;64592;52.168;21.040;2022-12-18T14:52:34;102695.03;;;-4.19;82.11
75913;BME280;64592;52.168;21.040;2022-12-18T14:57:38;102697.63;;;-4.20;83.01
75913;BME280;64592;52.168;21.040;2022-12-18T15:02:44;102690.59;;;-4.21;83.21
75913;BME280;64592;52.168;21.040;2022-12-18T15:07:49;102698.47;;;-4.21;83.36
75913;BME280;64592;52.168;21.040;2022-12-18T15:18:31;102715.97;;;-4.25;82.34
75913;BME280;64592;52.168;21.040;2022-12-18T15:23:36;102708.91;;;-4.26;82.07
75913;BME280;64592;52.168;21.040;2022-12-18T15:28:44;102712.34;;;-4.30;81.94
75913;BME280;64592;52.168;21.040;2022-12-18T15:34:12;102713.22;;;-4.30;81.75
75913;BME280;64592;52.168;21.040;2022-12-18T15:39:14;102722.72;;;-4.36;82.27
75913;BME280;64592;52.168;21.040;2022-12-18T15:44:22;102727.91;;;-4.39;82.64
75913;BME280;64592;52.168;21.040;2022-12-18T15:49:25;102727.78;;;-4.45;82.55
75913;BME280;64592;52.168;21.040;2022-12-18T15:54:26;102731.25;;;-4.46;82.07
75913;BME280;64592;52.168;21.040;2022-12-18T15:59:46;102732.09;;;-4.47;82.53
75913;BME280;64592;52.168;21.040;2022-12-18T16:04:49;102735.53;;;-4.50;83.00
75913;BME280;64592;52.168;21.040;2022-12-18T16:09:51;102733.75;;;-4.52;83.40
75913;BME280;64592;52.168;21.040;2022-12-18T16:14:52;102736.53;;;-4.46;82.62
75913;BME280;64592;52.168;21.040;2022-12-18T16:19:55;102739.03;;;-4.51;83.21
75913;BME280;64592;52.168;21.040;2022-12-18T16:24:57;102733.81;;;-4.49;82.66
75913;BME280;64592;52.168;21.040;2022-12-18T16:29:59;102725.91;;;-4.49;82.20
75913;BME280;64592;52.168;21.040;2022-12-18T16:35:02;102738.13;;;-4.53;82.85
75913;BME280;64592;52.168;21.040;2022-12-18T16:40:05;102737.19;;;-4.55;82.49
75913;BME280;64592;52.168;21.040;2022-12-18T16:45:11;102747.59;;;-4.59;82.88
75913;BME280;64592;52.168;21.040;2022-12-18T16:50:15;102741.44;;;-4.60;83.50
75913;BME280;64592;52.168;21.040;2022-12-18T16:55:16;102747.41;;;-4.67;83.86
75913;BME280;64592;52.168;21.040;2022-12-18T17:00:18;102755.31;;;-4.65;83.25
75913;BME280;64592;52.168;21.040;2022-12-18T17:05:21;102767.56;;;-4.66;83.10
75913;BME280;64592;52.168;21.040;2022-12-18T17:10:23;102768.50;;;-4.64;83.84
75913;BME280;64592;52.168;21.040;2022-12-18T17:15:24;102778.94;;;-4.68;83.10
75913;BME280;64592;52.168;21.040;2022-12-18T17:20:29;102786.69;;;-4.75;83.23
75913;BME280;64592;52.168;21.040;2022-12-18T17:25:31;102775.13;;;-4.80;83.37
75913;BME280;64592;52.168;21.040;2022-12-18T17:30:32;102770.00;;;-4.74;83.47
75913;BME280;64592;52.168;21.040;2022-12-18T17:35:35;102779.72;;;-4.71;83.30
75913;BME280;64592;52.168;21.040;2022-12-18T17:40:37;102772.53;;;-4.78;83.08
75913;BME280;64592;52.168;21.040;2022-12-18T17:45:40;102781.06;;;-4.87;83.06
75913;BME280;64592;52.168;21.040;2022-12-18T17:50:43;102790.53;;;-4.93;83.53
75913;BME280;64592;52.168;21.040;2022-12-18T17:55:52;102787.84;;;-4.95;84.04
75913;BME280;64592;52.168;21.040;2022-12-18T18:00:54;102808.91;;;-4.95;84.64
75913;BME280;64592;52.168;21.040;2022-12-18T18:05:58;102809.63;;;-5.00;83.87
75913;BME280;64592;52.168;21.040;2022-12-18T18:11:03;102798.84;;;-5.10;84.77
75913;BME280;64592;52.168;21.040;2022-12-18T18:16:19;102796.38;;;-5.03;84.23
75913;BME280;64592;52.168;21.040;2022-12-18T18:21:22;102792.63;;;-5.13;83.42
75913;BME280;64592;52.168;21.040;2022-12-18T18:26:23;102795.03;;;-5.21;84.56
75913;BME280;64592;52.168;21.040;2022-12-18T18:31:30;102794.22;;;-5.18;84.69
75913;BME280;64592;52.168;21.040;2022-12-18T18:36:33;102800.19;;;-5.24;85.20
75913;BME280;64592;52.168;21.040;2022-12-18T18:41:34;102810.75;;;-5.22;84.44
75913;BME280;64592;52.168;21.040;2022-12-18T18:46:36;102805.47;;;-5.24;85.12
75913;BME280;64592;52.168;21.040;2022-12-18T18:51:39;102815.91;;;-5.25;84.16
75913;BME280;64592;52.168;21.040;2022-12-18T18:56:41;102807.97;;;-5.28;83.92
75913;BME280;64592;52.168;21.040;2022-12-18T19:01:42;102800.94;;;-5.29;83.61
75913;BME280;64592;52.168;21.040;2022-12-18T19:06:45;102781.75;;;-5.27;83.91
75913;BME280;64592;52.168;21.040;2022-12-18T19:11:48;102808.75;;;-5.31;83.79
75913;BME280;64592;52.168;21.040;2022-12-18T19:17:15;102817.31;;;-5.38;84.58
75913;BME280;64592;52.168;21.040;2022-12-18T19:22:18;102812.59;;;-5.50;85.21
75913;BME280;64592;52.168;21.040;2022-12-18T19:27:20;102799.69;;;-5.42;84.56
75913;BME280;64592;52.168;21.040;2022-12-18T19:32:22;102810.81;;;-5.51;84.93
75913;BME280;64592;52.168;21.040;2022-12-18T19:37:24;102829.06;;;-5.55;84.34
75913;BME280;64592;52.168;21.040;2022-12-18T19:42:26;102830.06;;;-5.52;84.79
75913;BME280;64592;52.168;21.040;2022-12-18T19:47:28;102836.91;;;-5.57;85.00
75913;BME280;64592;52.168;21.040;2022-12-18T19:52:34;102827.13;;;-5.61;84.79
75913;BME280;64592;52.168;21.040;2022-12-18T19:57:36;102817.66;;;-5.56;84.61
75913;BME280;64592;52.168;21.040;2022-12-18T20:02:38;102823.78;;;-5.57;84.98
75913;BME280;64592;52.168;21.040;2022-12-18T20:07:41;102818.59;;;-5.54;84.80
75913;BME280;64592;52.168;21.040;2022-12-18T20:12:42;102816.13;;;-5.49;84.43
75913;BME280;64592;52.168;21.040;2022-12-18T20:17:44;102827.41;;;-5.52;84.56
75913;BME280;64592;52.168;21.040;2022-12-18T20:22:47;102830.16;;;-5.49;84.40
75913;BME280;64592;52.168;21.040;2022-12-18T20:27:49;102831.84;;;-5.51;84.36
75913;BME280;64592;52.168;21.040;2022-12-18T20:32:50;102827.25;;;-5.58;83.80
75913;BME280;64592;52.168;21.040;2022-12-18T20:37:55;102830.59;;;-5.63;84.53
75913;BME280;64592;52.168;21.040;2022-12-18T20:42:56;102827.28;;;-5.56;84.32
75913;BME280;64592;52.168;21.040;2022-12-18T20:47:58;102833.41;;;-5.56;84.44
75913;BME280;64592;52.168;21.040;2022-12-18T20:53:02;102845.69;;;-5.55;84.22
75913;BME280;64592;52.168;21.040;2022-12-18T20:58:03;102860.56;;;-5.57;84.03
75913;BME280;64592;52.168;21.040;2022-12-18T21:03:05;102859.78;;;-5.53;83.76
75913;BME280;64592;52.168;21.040;2022-12-18T21:08:09;102848.44;;;-5.52;83.32
75913;BME280;64592;52.168;21.040;2022-12-18T21:13:11;102855.19;;;-5.60;84.50
75913;BME280;64592;52.168;21.040;2022-12-18T21:18:12;102858.53;;;-5.65;84.34
75913;BME280;64592;52.168;21.040;2022-12-18T21:23:16;102862.97;;;-5.63;83.89
75913;BME280;64592;52.168;21.040;2022-12-18T21:28:17;102859.50;;;-5.62;83.74
75913;BME280;64592;52.168;21.040;2022-12-18T21:33:19;102840.38;;;-5.58;83.90
75913;BME280;64592;52.168;21.040;2022-12-18T21:38:22;102828.94;;;-5.60;83.50
75913;BME280;64592;52.168;21.040;2022-12-18T21:43:23;102822.91;;;-5.56;82.82
75913;BME280;64592;52.168;21.040;2022-12-18T21:48:42;102822.81;;;-5.59;82.75
75913;BME280;64592;52.168;21.040;2022-12-18T21:53:45;102804.50;;;-5.56;83.70
75913;BME280;64592;52.168;21.040;2022-12-18T21:58:47;102791.59;;;-5.50;83.31
75913;BME280;64592;52.168;21.040;2022-12-18T22:03:49;102780.88;;;-5.56;83.03
75913;BME280;64592;52.168;21.040;2022-12-18T22:08:52;102766.00;;;-5.55;84.00
75913;BME280;64592;52.168;21.040;2022-12-18T22:13:53;102763.53;;;-5.51;83.42
75913;BME280;64592;52.168;21.040;2022-12-18T22:18:55;102749.34;;;-5.56;83.63
75913;BME280;64592;52.168;21.040;2022-12-18T22:23:59;102749.34;;;-5.56;83.24
75913;BME280;64592;52.168;21.040;2022-12-18T22:29:02;102746.66;;;-5.59;83.58
75913;BME280;64592;52.168;21.040;2022-12-18T22:34:20;102753.53;;;-5.62;83.50
75913;BME280;64592;52.168;21.040;2022-12-18T22:39:24;102754.53;;;-5.59;82.82
75913;BME280;64592;52.168;21.040;2022-12-18T22:44:26;102749.09;;;-5.65;82.62
75913;BME280;64592;52.168;21.040;2022-12-18T22:49:28;102758.63;;;-5.68;82.02
75913;BME280;64592;52.168;21.040;2022-12-18T22:54:31;102746.16;;;-5.75;82.51
75913;BME280;64592;52.168;21.040;2022-12-18T22:59:33;102759.81;;;-5.89;82.60
75913;BME280;64592;52.168;21.040;2022-12-18T23:04:34;102754.44;;;-5.92;82.58
75913;BME280;64592;52.168;21.040;2022-12-18T23:09:38;102749.31;;;-5.89;82.49
75913;BME280;64592;52.168;21.040;2022-12-18T23:14:39;102738.47;;;-5.99;82.99
75913;BME280;64592;52.168;21.040;2022-12-18T23:19:41;102758.50;;;-6.03;82.61
75913;BME280;64592;52.168;21.040;2022-12-18T23:24:45;102754.19;;;-6.01;82.98
75913;BME280;64592;52.168;21.040;2022-12-18T23:29:46;102731.22;;;-6.08;83.01
75913;BME280;64592;52.168;21.040;2022-12-18T23:34:48;102737.34;;;-6.07;83.65
75913;BME280;64592;52.168;21.040;2022-12-18T23:39:51;102724.13;;;-6.10;83.51
75913;BME280;64592;52.168;21.040;2022-12-18T23:44:52;102728.50;;;-6.11;83.59
75913;BME280;64592;52.168;21.040;2022-12-18T23:49:54;102727.72;;;-6.08;83.03
75913;BME280;64592;52.168;21.040;2022-12-18T23:54:57;102725.97;;;-6.08;82.61
75913;BME280;64592;52.168;21.040;2022-12-18T23:59:59;102733.84;;;-6.08;83.38
